sensor_id;sensor_type;location;lat;lon;timestamp;pressure;altitude;pressure_sealevel;temperature;humidity
22283;BME280;11310;51.528;21.204;2023-04-15T00:01:16;99058.75;;;11.03;100.00
22283;BME280;11310;51.528;21.204;2023-04-15T00:03:45;99055.19;;;11.04;100.00
22283;BME280;11310;51.528;21.204;2023-04-15T00:06:14;99061.56;;;11.00;100.00
22283;BME280;11310;51.528;21.204;2023-04-15T00:08:43;99061.75;;;10.97;100.00
22283;BME280;11310;51.528;21.204;2023-04-15T00:11:13;99053.03;;;10.97;100.00
22283;BME280;11310;51.528;21.204;2023-04-15T00:13:43;99060.28;;;10.93;100.00
22283;BME280;11310;51.528;21.204;2023-04-15T00:16:11;99051.44;;;10.94;100.00
22283;BME280;11310;51.528;21.204;2023-04-15T00:18:40;99049.56;;;10.96;100.00
22283;BME280;11310;51.528;21.204;2023-04-15T00:21:08;99065.22;;;10.98;100.00
22283;BME280;11310;51.528;21.204;2023-04-15T00:23:36;99051.44;;;10.94;100.00
22283;BME280;11310;51.528;21.204;2023-04-15T00:26:05;99057.91;;;10.89;100.00
22283;BME280;11310;51.528;21.204;2023-04-15T00:28:33;99064.28;;;10.85;100.00
22283;BME280;11310;51.528;21.204;2023-04-15T00:31:03;99056.44;;;10.85;100.00
22283;BME280;11310;51.528;21.204;2023-04-15T00:33:32;99058.22;;;10.84;100.00
22283;BME280;11310;51.528;21.204;2023-04-15T00:36:05;99056.91;;;10.77;100.00
22283;BME280;11310;51.528;21.204;2023-04-15T00:38:37;99057.09;;;10.74;100.00
22283;BME280;11310;51.528;21.204;2023-04-15T00:41:05;99055.50;;;10.72;100.00
22283;BME280;11310;51.528;21.204;2023-04-15T00:43:34;99053.91;;;10.69;100.00
22283;BME280;11310;51.528;21.204;2023-04-15T00:46:05;99055.50;;;10.72;100.00
22283;BME280;11310;51.528;21.204;2023-04-15T00:48:34;99053.25;;;10.66;100.00
22283;BME280;11310;51.528;21.204;2023-04-15T00:51:04;99054.03;;;10.68;100.00
22283;BME280;11310;51.528;21.204;2023-04-15T00:53:34;99054.84;;;10.68;100.00
22283;BME280;11310;51.528;21.204;2023-04-15T00:56:02;99060.94;;;10.69;100.00
22283;BME280;11310;51.528;21.204;2023-04-15T00:58:31;99052.22;;;10.68;100.00
22283;BME280;11310;51.528;21.204;2023-04-15T01:01:00;99054.94;;;10.67;100.00
22283;BME280;11310;51.528;21.204;2023-04-15T01:03:30;99048.97;;;10.65;100.00
22283;BME280;11310;51.528;21.204;2023-04-15T01:05:59;99056.19;;;10.61;100.00
22283;BME280;11310;51.528;21.204;2023-04-15T01:08:30;99054.38;;;10.62;100.00
22283;BME280;11310;51.528;21.204;2023-04-15T01:11:00;99059.84;;;10.59;100.00
22283;BME280;11310;51.528;21.204;2023-04-15T01:13:30;99057.88;;;10.62;100.00
22283;BME280;11310;51.528;21.204;2023-04-15T01:16:01;99057.31;;;10.57;100.00
22283;BME280;11310;51.528;21.204;2023-04-15T01:18:32;99060.97;;;10.55;100.00
22283;BME280;11310;51.528;21.204;2023-04-15T01:21:01;99056.63;;;10.54;100.00
22283;BME280;11310;51.528;21.204;2023-04-15T01:23:31;99059.16;;;10.55;100.00
22283;BME280;11310;51.528;21.204;2023-04-15T01:26:02;99059.06;;;10.57;100.00
22283;BME280;11310;51.528;21.204;2023-04-15T01:28:31;99059.06;;;10.57;100.00
22283;BME280;11310;51.528;21.204;2023-04-15T01:31:07;99060.41;;;10.50;100.00
22283;BME280;11310;51.528;21.204;2023-04-15T01:33:36;99062.91;;;10.51;100.00
22283;BME280;11310;51.528;21.204;2023-04-15T01:36:06;99055.03;;;10.51;100.00
22283;BME280;11310;51.528;21.204;2023-04-15T01:38:36;99059.38;;;10.52;100.00
22283;BME280;11310;51.528;21.204;2023-04-15T01:41:06;99057.56;;;10.53;100.00
22283;BME280;11310;51.528;21.204;2023-04-15T01:43:35;99056.63;;;10.54;100.00
22283;BME280;11310;51.528;21.204;2023-04-15T01:46:04;99060.19;;;10.53;100.00
22283;BME280;11310;51.528;21.204;2023-04-15T01:48:33;99060.41;;;10.50;100.00
22283;BME280;11310;51.528;21.204;2023-04-15T01:51:03;99057.00;;;10.48;100.00
22283;BME280;11310;51.528;21.204;2023-04-15T01:53:32;99058.91;;;10.46;100.00
22283;BME280;11310;51.528;21.204;2023-04-15T01:56:03;99058.97;;;10.44;100.00
22283;BME280;11310;51.528;21.204;2023-04-15T01:58:33;99053.66;;;10.46;100.00
22283;BME280;11310;51.528;21.204;2023-04-15T02:01:02;99061.53;;;10.46;100.00
22283;BME280;11310;51.528;21.204;2023-04-15T02:03:31;99049.91;;;10.50;100.00
22283;BME280;11310;51.528;21.204;2023-04-15T02:06:00;99054.22;;;10.51;100.00
22283;BME280;11310;51.528;21.204;2023-04-15T02:08:28;99051.84;;;10.46;100.00
22283;BME280;11310;51.528;21.204;2023-04-15T02:10:57;99055.59;;;10.42;100.00
22283;BME280;11310;51.528;21.204;2023-04-15T02:13:27;99053.19;;;10.39;100.00
22283;BME280;11310;51.528;21.204;2023-04-15T02:15:57;99051.03;;;10.32;100.00
22283;BME280;11310;51.528;21.204;2023-04-15T02:18:26;99049.16;;;10.34;100.00
22283;BME280;11310;51.528;21.204;2023-04-15T02:20:54;99057.66;;;10.37;100.00
22283;BME280;11310;51.528;21.204;2023-04-15T02:23:24;99052.41;;;10.37;100.00
22283;BME280;11310;51.528;21.204;2023-04-15T02:25:53;99050.81;;;10.35;100.00
22283;BME280;11310;51.528;21.204;2023-04-15T02:28:21;99052.06;;;10.29;100.00
22283;BME280;11310;51.528;21.204;2023-04-15T02:30:50;99049.88;;;10.22;100.00
22283;BME280;11310;51.528;21.204;2023-04-15T02:33:22;99050.06;;;10.19;100.00
22283;BME280;11310;51.528;21.204;2023-04-15T02:35:51;99051.03;;;10.18;100.00
22283;BME280;11310;51.528;21.204;2023-04-15T02:38:19;99049.31;;;10.17;100.00
22283;BME280;11310;51.528;21.204;2023-04-15T02:40:48;99057.16;;;10.17;100.00
22283;BME280;11310;51.528;21.204;2023-04-15T02:43:17;99045.00;;;10.16;100.00
22283;BME280;11310;51.528;21.204;2023-04-15T02:45:46;99048.41;;;10.18;100.00
22283;BME280;11310;51.528;21.204;2023-04-15T02:48:15;99051.75;;;10.20;100.00
22283;BME280;11310;51.528;21.204;2023-04-15T02:50:47;99051.84;;;10.18;100.00
22283;BME280;11310;51.528;21.204;2023-04-15T02:53:16;99043.81;;;10.21;100.00
22283;BME280;11310;51.528;21.204;2023-04-15T02:55:46;99049.78;;;10.23;100.00
22283;BME280;11310;51.528;21.204;2023-04-15T02:58:15;99048.03;;;10.24;100.00
22283;BME280;11310;51.528;21.204;2023-04-15T03:00:44;99047.16;;;10.23;100.00
22283;BME280;11310;51.528;21.204;2023-04-15T03:03:12;99046.34;;;10.23;100.00
22283;BME280;11310;51.528;21.204;2023-04-15T03:05:41;99048.03;;;10.24;100.00
22283;BME280;11310;51.528;21.204;2023-04-15T03:08:11;99043.72;;;10.23;100.00
22283;BME280;11310;51.528;21.204;2023-04-15T03:10:41;99046.44;;;10.21;100.00
22283;BME280;11310;51.528;21.204;2023-04-15T03:13:10;99037.72;;;10.21;100.00
22283;BME280;11310;51.528;21.204;2023-04-15T03:15:39;99036.88;;;10.20;100.00
22283;BME280;11310;51.528;21.204;2023-04-15T03:18:08;99049.88;;;10.22;100.00
22283;BME280;11310;51.528;21.204;2023-04-15T03:20:40;99049.69;;;10.25;100.00
22283;BME280;11310;51.528;21.204;2023-04-15T03:23:09;99042.78;;;10.24;100.00
22283;BME280;11310;51.528;21.204;2023-04-15T03:25:39;99049.88;;;10.22;100.00
22283;BME280;11310;51.528;21.204;2023-04-15T03:28:07;99045.78;;;10.18;100.00
22283;BME280;11310;51.528;21.204;2023-04-15T03:30:36;99043.81;;;10.21;100.00
22283;BME280;11310;51.528;21.204;2023-04-15T03:33:05;99046.34;;;10.23;100.00
22283;BME280;11310;51.528;21.204;2023-04-15T03:35:33;99044.44;;;10.25;100.00
22283;BME280;11310;51.528;21.204;2023-04-15T03:38:02;99045.31;;;10.25;100.00
22283;BME280;11310;51.528;21.204;2023-04-15T03:40:31;99042.69;;;10.25;100.00
22283;BME280;11310;51.528;21.204;2023-04-15T03:43:01;99043.44;;;10.27;100.00
22283;BME280;11310;51.528;21.204;2023-04-15T03:45:30;99042.78;;;10.24;100.00
22283;BME280;11310;51.528;21.204;2023-04-15T03:47:58;99044.75;;;10.20;100.00
22283;BME280;11310;51.528;21.204;2023-04-15T03:50:43;99056.13;;;10.19;100.00
22283;BME280;11310;51.528;21.204;2023-04-15T03:53:12;99062.31;;;10.18;100.00
22283;BME280;11310;51.528;21.204;2023-04-15T03:55:41;99060.66;;;10.17;100.00
22283;BME280;11310;51.528;21.204;2023-04-15T03:58:11;99054.53;;;10.17;100.00
22283;BME280;11310;51.528;21.204;2023-04-15T04:00:40;99050.81;;;10.21;100.00
22283;BME280;11310;51.528;21.204;2023-04-15T04:03:08;99063.91;;;10.21;100.00
22283;BME280;11310;51.528;21.204;2023-04-15T04:05:38;99054.38;;;10.20;100.00
22283;BME280;11310;51.528;21.204;2023-04-15T04:08:07;99061.38;;;10.19;100.00
22283;BME280;11310;51.528;21.204;2023-04-15T04:10:36;99064.13;;;10.18;100.00
22283;BME280;11310;51.528;21.204;2023-04-15T04:13:05;99055.50;;;10.16;100.00
22283;BME280;11310;51.528;21.204;2023-04-15T04:15:35;99052.13;;;10.14;100.00
22283;BME280;11310;51.528;21.204;2023-04-15T04:18:04;99049.31;;;10.17;100.00
22283;BME280;11310;51.528;21.204;2023-04-15T04:20:33;99048.41;;;10.18;100.00
22283;BME280;11310;51.528;21.204;2023-04-15T04:23:02;99049.31;;;10.17;100.00
22283;BME280;11310;51.528;21.204;2023-04-15T04:25:31;99044.19;;;10.15;100.00
22283;BME280;11310;51.528;21.204;2023-04-15T04:27:59;99050.06;;;10.19;100.00
22283;BME280;11310;51.528;21.204;2023-04-15T04:30:28;99050.72;;;10.22;100.00
22283;BME280;11310;51.528;21.204;2023-04-15T04:32:58;99052.22;;;10.26;100.00
22283;BME280;11310;51.528;21.204;2023-04-15T04:35:27;99057.38;;;10.28;100.00
22283;BME280;11310;51.528;21.204;2023-04-15T04:37:56;99052.06;;;10.29;100.00
22283;BME280;11310;51.528;21.204;2023-04-15T04:40:24;99056.16;;;10.33;100.00
22283;BME280;11310;51.528;21.204;2023-04-15T04:42:53;99059.53;;;10.35;100.00
22283;BME280;11310;51.528;21.204;2023-04-15T04:45:22;99055.31;;;10.33;100.00
22283;BME280;11310;51.528;21.204;2023-04-15T04:47:51;99062.34;;;10.32;100.00
22283;BME280;11310;51.528;21.204;2023-04-15T04:50:21;99056.28;;;10.32;100.00
22283;BME280;11310;51.528;21.204;2023-04-15T04:52:50;99061.50;;;10.32;100.00
22283;BME280;11310;51.528;21.204;2023-04-15T04:55:20;99062.34;;;10.32;100.00
22283;BME280;11310;51.528;21.204;2023-04-15T04:57:49;99060.41;;;10.36;100.00
22283;BME280;11310;51.528;21.204;2023-04-15T05:00:18;99062.06;;;10.37;100.00
22283;BME280;11310;51.528;21.204;2023-04-15T05:02:47;99069.94;;;10.37;100.00
22283;BME280;11310;51.528;21.204;2023-04-15T05:05:16;99073.31;;;10.39;100.00
22283;BME280;11310;51.528;21.204;2023-04-15T05:07:46;99064.69;;;10.37;100.00
22283;BME280;11310;51.528;21.204;2023-04-15T05:10:16;99054.56;;;10.31;100.00
22283;BME280;11310;51.528;21.204;2023-04-15T05:12:45;99060.84;;;10.28;100.00
22283;BME280;11310;51.528;21.204;2023-04-15T05:15:14;99063.19;;;10.33;100.00
22283;BME280;11310;51.528;21.204;2023-04-15T05:17:43;99061.31;;;10.35;100.00
22283;BME280;11310;51.528;21.204;2023-04-15T05:20:12;99064.69;;;10.37;100.00
22283;BME280;11310;51.528;21.204;2023-04-15T05:22:41;99069.00;;;10.38;100.00
22283;BME280;11310;51.528;21.204;2023-04-15T05:25:11;99063.03;;;10.36;100.00
22283;BME280;11310;51.528;21.204;2023-04-15T05:27:40;99064.69;;;10.37;100.00
22283;BME280;11310;51.528;21.204;2023-04-15T05:30:09;99074.97;;;10.40;100.00
22283;BME280;11310;51.528;21.204;2023-04-15T05:32:39;99069.72;;;10.40;100.00
22283;BME280;11310;51.528;21.204;2023-04-15T05:35:08;99076.88;;;10.38;100.00
22283;BME280;11310;51.528;21.204;2023-04-15T05:37:37;99071.63;;;10.38;100.00
22283;BME280;11310;51.528;21.204;2023-04-15T05:40:07;99073.31;;;10.39;100.00
22283;BME280;11310;51.528;21.204;2023-04-15T05:42:38;99077.72;;;10.38;100.00
22283;BME280;11310;51.528;21.204;2023-04-15T05:45:08;99068.91;;;10.39;100.00
22283;BME280;11310;51.528;21.204;2023-04-15T05:47:36;99072.91;;;10.45;100.00
22283;BME280;11310;51.528;21.204;2023-04-15T05:50:05;99068.53;;;10.45;100.00
22283;BME280;11310;51.528;21.204;2023-04-15T05:52:34;99069.38;;;10.46;100.00
22283;BME280;11310;51.528;21.204;2023-04-15T05:55:04;99069.47;;;10.44;100.00
22283;BME280;11310;51.528;21.204;2023-04-15T05:57:33;99074.81;;;10.43;100.00
22283;BME280;11310;51.528;21.204;2023-04-15T06:00:04;99074.81;;;10.43;100.00
22283;BME280;11310;51.528;21.204;2023-04-15T06:02:36;99076.69;;;10.41;100.00
22283;BME280;11310;51.528;21.204;2023-04-15T06:05:05;99081.00;;;10.42;100.00
22283;BME280;11310;51.528;21.204;2023-04-15T06:07:36;99082.97;;;10.38;100.00
22283;BME280;11310;51.528;21.204;2023-04-15T06:10:06;99093.31;;;10.40;100.00
22283;BME280;11310;51.528;21.204;2023-04-15T06:12:35;99085.19;;;10.44;100.00
22283;BME280;11310;51.528;21.204;2023-04-15T06:15:07;99091.09;;;10.48;100.00
22283;BME280;11310;51.528;21.204;2023-04-15T06:17:36;99083.22;;;10.48;100.00
22283;BME280;11310;51.528;21.204;2023-04-15T06:20:06;99092.13;;;10.45;100.00
22283;BME280;11310;51.528;21.204;2023-04-15T06:22:36;99094.75;;;10.45;100.00
22283;BME280;11310;51.528;21.204;2023-04-15T06:25:06;99100.56;;;10.50;100.00
22283;BME280;11310;51.528;21.204;2023-04-15T06:27:35;99098.69;;;10.52;100.00
22283;BME280;11310;51.528;21.204;2023-04-15T06:30:07;99103.81;;;10.54;100.00
22283;BME280;11310;51.528;21.204;2023-04-15T06:32:36;99095.06;;;10.55;100.00
22283;BME280;11310;51.528;21.204;2023-04-15T06:35:06;99106.28;;;10.57;100.00
22283;BME280;11310;51.528;21.204;2023-04-15T06:37:35;99106.19;;;10.58;100.00
22283;BME280;11310;51.528;21.204;2023-04-15T06:40:05;99105.34;;;10.58;100.00
22283;BME280;11310;51.528;21.204;2023-04-15T06:42:35;99113.31;;;10.56;100.00
22283;BME280;11310;51.528;21.204;2023-04-15T06:45:08;99106.38;;;10.55;100.00
22283;BME280;11310;51.528;21.204;2023-04-15T06:47:37;99102.91;;;10.55;100.00
22283;BME280;11310;51.528;21.204;2023-04-15T06:50:06;99110.41;;;10.61;100.00
22283;BME280;11310;51.528;21.204;2023-04-15T06:52:35;99116.97;;;10.68;100.00
22283;BME280;11310;51.528;21.204;2023-04-15T06:55:05;99121.06;;;10.72;100.00
22283;BME280;11310;51.528;21.204;2023-04-15T06:57:35;99118.28;;;10.75;100.00
22283;BME280;11310;51.528;21.204;2023-04-15T07:00:05;99114.06;;;10.72;100.00
22283;BME280;11310;51.528;21.204;2023-04-15T07:02:35;99112.38;;;10.71;100.00
22283;BME280;11310;51.528;21.204;2023-04-15T07:05:05;99122.31;;;10.80;100.00
22283;BME280;11310;51.528;21.204;2023-04-15T07:07:35;99128.75;;;10.89;100.00
22283;BME280;11310;51.528;21.204;2023-04-15T07:10:05;99125.75;;;10.95;100.00
22283;BME280;11310;51.528;21.204;2023-04-15T07:12:34;99123.88;;;10.97;100.00
22283;BME280;11310;51.528;21.204;2023-04-15T07:15:04;99122.69;;;11.02;100.00
22283;BME280;11310;51.528;21.204;2023-04-15T07:17:33;99128.75;;;11.03;100.00
22283;BME280;11310;51.528;21.204;2023-04-15T07:20:03;99123.31;;;11.06;100.00
22283;BME280;11310;51.528;21.204;2023-04-15T07:22:32;99123.88;;;11.11;100.00
22283;BME280;11310;51.528;21.204;2023-04-15T07:25:00;99127.22;;;11.13;100.00
22283;BME280;11310;51.528;21.204;2023-04-15T07:27:30;99135.03;;;11.14;100.00
22283;BME280;11310;51.528;21.204;2023-04-15T07:29:59;99132.84;;;11.21;100.00
22283;BME280;11310;51.528;21.204;2023-04-15T07:32:27;99127.03;;;11.30;100.00
22283;BME280;11310;51.528;21.204;2023-04-15T07:34:57;99130.84;;;11.38;100.00
22283;BME280;11310;51.528;21.204;2023-04-15T07:37:28;99127.63;;;11.47;100.00
22283;BME280;11310;51.528;21.204;2023-04-15T07:39:56;99125.84;;;11.62;100.00
22283;BME280;11310;51.528;21.204;2023-04-15T07:42:25;99125.97;;;11.73;100.00
22283;BME280;11310;51.528;21.204;2023-04-15T07:44:55;99120.69;;;11.87;100.00
22283;BME280;11310;51.528;21.204;2023-04-15T07:47:24;99117.47;;;11.96;100.00
22283;BME280;11310;51.528;21.204;2023-04-15T07:49:53;99124.84;;;12.04;100.00
22283;BME280;11310;51.528;21.204;2023-04-15T07:52:22;99129.78;;;12.08;100.00
22283;BME280;11310;51.528;21.204;2023-04-15T07:54:52;99126.09;;;12.11;100.00
22283;BME280;11310;51.528;21.204;2023-04-15T07:57:21;99132.13;;;12.13;100.00
22283;BME280;11310;51.528;21.204;2023-04-15T07:59:50;99127.91;;;12.10;100.00
22283;BME280;11310;51.528;21.204;2023-04-15T08:02:18;99127.56;;;12.02;100.00
22283;BME280;11310;51.528;21.204;2023-04-15T08:04:48;99136.59;;;11.98;100.00
22283;BME280;11310;51.528;21.204;2023-04-15T08:07:17;99134.91;;;11.97;100.00
22283;BME280;11310;51.528;21.204;2023-04-15T08:09:46;99137.53;;;11.97;100.00
22283;BME280;11310;51.528;21.204;2023-04-15T08:12:16;99136.88;;;11.93;100.00
22283;BME280;11310;51.528;21.204;2023-04-15T08:14:45;99140.78;;;11.88;100.00
22283;BME280;11310;51.528;21.204;2023-04-15T08:17:14;99142.44;;;11.89;100.00
22283;BME280;11310;51.528;21.204;2023-04-15T08:19:43;99148.94;;;11.83;100.00
22283;BME280;11310;51.528;21.204;2023-04-15T08:22:14;99157.59;;;11.86;100.00
22283;BME280;11310;51.528;21.204;2023-04-15T08:24:45;99154.88;;;11.87;100.00
22283;BME280;11310;51.528;21.204;2023-04-15T08:27:16;99155.50;;;11.91;100.00
22283;BME280;11310;51.528;21.204;2023-04-15T08:29:45;99152.56;;;11.95;100.00
22283;BME280;11310;51.528;21.204;2023-04-15T08:32:14;99154.44;;;11.93;100.00
22283;BME280;11310;51.528;21.204;2023-04-15T08:34:43;99153.81;;;11.90;100.00
22283;BME280;11310;51.528;21.204;2023-04-15T08:37:12;99152.88;;;11.91;100.00
22283;BME280;11310;51.528;21.204;2023-04-15T08:39:41;99160.66;;;11.92;100.00
22283;BME280;11310;51.528;21.204;2023-04-15T08:42:11;99166.00;;;11.91;100.00
22283;BME280;11310;51.528;21.204;2023-04-15T08:44:45;99159.06;;;11.90;100.00
22283;BME280;11310;51.528;21.204;2023-04-15T08:47:15;99171.19;;;11.92;100.00
22283;BME280;11310;51.528;21.204;2023-04-15T08:49:47;99170.41;;;11.90;100.00
22283;BME280;11310;51.528;21.204;2023-04-15T08:52:19;99172.31;;;11.88;100.00
22283;BME280;11310;51.528;21.204;2023-04-15T08:54:49;99180.03;;;11.77;100.00
22283;BME280;11310;51.528;21.204;2023-04-15T08:57:19;99178.34;;;11.76;100.00
22283;BME280;11310;51.528;21.204;2023-04-15T08:59:49;99187.81;;;11.78;100.00
22283;BME280;11310;51.528;21.204;2023-04-15T09:02:19;99200.94;;;11.78;100.00
22283;BME280;11310;51.528;21.204;2023-04-15T09:04:48;99190.34;;;11.80;100.00
22283;BME280;11310;51.528;21.204;2023-04-15T09:07:17;99197.81;;;11.86;100.00
22283;BME280;11310;51.528;21.204;2023-04-15T09:09:47;99194.06;;;11.90;100.00
22283;BME280;11310;51.528;21.204;2023-04-15T09:12:16;99196.69;;;11.90;100.00
22283;BME280;11310;51.528;21.204;2023-04-15T09:14:45;99207.13;;;11.92;100.00
22283;BME280;11310;51.528;21.204;2023-04-15T09:17:18;99205.13;;;11.95;100.00
22283;BME280;11310;51.528;21.204;2023-04-15T09:19:48;99205.88;;;11.97;100.00
22283;BME280;11310;51.528;21.204;2023-04-15T09:22:19;99203.88;;;12.01;100.00
22283;BME280;11310;51.528;21.204;2023-04-15T09:24:48;99203.03;;;12.00;100.00
22283;BME280;11310;51.528;21.204;2023-04-15T09:27:19;99200.13;;;12.05;100.00
22283;BME280;11310;51.528;21.204;2023-04-15T09:29:49;99201.53;;;12.10;100.00
22283;BME280;11310;51.528;21.204;2023-04-15T09:32:20;99200.34;;;12.14;100.00
22283;BME280;11310;51.528;21.204;2023-04-15T09:34:51;99208.25;;;12.14;100.00
22283;BME280;11310;51.528;21.204;2023-04-15T09:37:34;99204.47;;;12.18;100.00
22283;BME280;11310;51.528;21.204;2023-04-15T09:40:03;99210.69;;;12.17;100.00
22283;BME280;11310;51.528;21.204;2023-04-15T09:42:33;99212.47;;;12.17;100.00
22283;BME280;11310;51.528;21.204;2023-04-15T09:45:10;99207.22;;;12.17;100.00
22283;BME280;11310;51.528;21.204;2023-04-15T09:47:40;99221.19;;;12.17;100.00
22283;BME280;11310;51.528;21.204;2023-04-15T09:50:10;99218.38;;;12.20;100.00
22283;BME280;11310;51.528;21.204;2023-04-15T09:52:41;99218.47;;;12.19;100.00
22283;BME280;11310;51.528;21.204;2023-04-15T09:55:11;99223.63;;;12.20;100.00
22283;BME280;11310;51.528;21.204;2023-04-15T09:57:41;99221.63;;;12.24;100.00
22283;BME280;11310;51.528;21.204;2023-04-15T10:00:11;99222.28;;;12.27;100.00
22283;BME280;11310;51.528;21.204;2023-04-15T10:02:42;99230.16;;;12.27;100.00
22283;BME280;11310;51.528;21.204;2023-04-15T10:05:13;99221.22;;;12.30;100.00
22283;BME280;11310;51.528;21.204;2023-04-15T10:07:43;99224.72;;;12.30;100.00
22283;BME280;11310;51.528;21.204;2023-04-15T10:10:13;99228.28;;;12.29;100.00
22283;BME280;11310;51.528;21.204;2023-04-15T10:12:43;99220.59;;;12.26;100.00
22283;BME280;11310;51.528;21.204;2023-04-15T10:15:14;99219.44;;;12.30;100.00
22283;BME280;11310;51.528;21.204;2023-04-15T10:17:47;99223.97;;;12.28;100.00
22283;BME280;11310;51.528;21.204;2023-04-15T10:20:18;99230.16;;;12.27;100.00
22283;BME280;11310;51.528;21.204;2023-04-15T10:22:48;99224.19;;;12.25;100.00
22283;BME280;11310;51.528;21.204;2023-04-15T10:25:20;99223.75;;;12.31;100.00
22283;BME280;11310;51.528;21.204;2023-04-15T10:27:49;99224.66;;;12.44;100.00
22283;BME280;11310;51.528;21.204;2023-04-15T10:30:20;99222.75;;;12.46;100.00
22283;BME280;11310;51.528;21.204;2023-04-15T10:32:51;99226.13;;;12.48;100.00
22283;BME280;11310;51.528;21.204;2023-04-15T10:35:22;99223.69;;;12.45;100.00
22283;BME280;11310;51.528;21.204;2023-04-15T10:37:51;99228.00;;;12.46;100.00
22283;BME280;11310;51.528;21.204;2023-04-15T10:40:24;99229.72;;;12.47;100.00
22283;BME280;11310;51.528;21.204;2023-04-15T10:42:55;99227.72;;;12.51;100.00
22283;BME280;11310;51.528;21.204;2023-04-15T10:45:30;99228.88;;;12.59;100.00
22283;BME280;11310;51.528;21.204;2023-04-15T10:48:03;99228.50;;;12.65;100.00
22283;BME280;11310;51.528;21.204;2023-04-15T10:50:32;99229.94;;;12.69;100.00
22283;BME280;11310;51.528;21.204;2023-04-15T10:53:02;99230.19;;;12.79;100.00
22283;BME280;11310;51.528;21.204;2023-04-15T10:55:32;99233.19;;;12.99;100.00
22283;BME280;11310;51.528;21.204;2023-04-15T10:58:02;99233.28;;;13.10;100.00
22283;BME280;11310;51.528;21.204;2023-04-15T11:00:32;99228.00;;;13.10;100.00
22283;BME280;11310;51.528;21.204;2023-04-15T11:03:06;99221.28;;;13.19;100.00
22283;BME280;11310;51.528;21.204;2023-04-15T11:05:57;99228.97;;;13.34;100.00
22283;BME280;11310;51.528;21.204;2023-04-15T11:08:53;99223.25;;;13.40;100.00
22283;BME280;11310;51.528;21.204;2023-04-15T11:11:22;99226.91;;;13.50;100.00
22283;BME280;11310;51.528;21.204;2023-04-15T11:13:52;99228.47;;;13.65;100.00
22283;BME280;11310;51.528;21.204;2023-04-15T11:16:24;99230.19;;;13.90;100.00
22283;BME280;11310;51.528;21.204;2023-04-15T11:18:55;99232.41;;;14.19;100.00
22283;BME280;11310;51.528;21.204;2023-04-15T11:21:24;99225.75;;;14.26;100.00
22283;BME280;11310;51.528;21.204;2023-04-15T11:23:54;99230.66;;;14.43;100.00
22283;BME280;11310;51.528;21.204;2023-04-15T11:26:25;99231.56;;;14.42;100.00
22283;BME280;11310;51.528;21.204;2023-04-15T11:28:54;99229.91;;;14.41;100.00
22283;BME280;11310;51.528;21.204;2023-04-15T11:31:27;99235.94;;;14.43;100.00
22283;BME280;11310;51.528;21.204;2023-04-15T11:33:58;99220.16;;;14.65;100.00
22283;BME280;11310;51.528;21.204;2023-04-15T11:36:28;99230.56;;;15.01;100.00
22283;BME280;11310;51.528;21.204;2023-04-15T11:38:58;99232.44;;;15.34;100.00
22283;BME280;11310;51.528;21.204;2023-04-15T11:41:27;99238.81;;;15.42;100.00
22283;BME280;11310;51.528;21.204;2023-04-15T11:43:56;99235.94;;;15.45;100.00
22283;BME280;11310;51.528;21.204;2023-04-15T11:46:28;99240.00;;;15.60;100.00
22283;BME280;11310;51.528;21.204;2023-04-15T11:49:00;99234.22;;;15.66;100.00
22283;BME280;11310;51.528;21.204;2023-04-15T11:51:31;99240.13;;;15.70;100.00
22283;BME280;11310;51.528;21.204;2023-04-15T11:54:08;99242.50;;;15.73;99.92
22283;BME280;11310;51.528;21.204;2023-04-15T11:57:15;99237.34;;;15.82;99.43
22283;BME280;11310;51.528;21.204;2023-04-15T11:59:44;99235.06;;;15.67;99.90
22283;BME280;11310;51.528;21.204;2023-04-15T12:02:14;99237.00;;;15.43;100.00
22283;BME280;11310;51.528;21.204;2023-04-15T12:04:44;99242.53;;;15.40;100.00
22283;BME280;11310;51.528;21.204;2023-04-15T12:07:13;99242.88;;;15.46;100.00
22283;BME280;11310;51.528;21.204;2023-04-15T12:09:54;99243.38;;;15.40;100.00
22283;BME280;11310;51.528;21.204;2023-04-15T12:12:26;99250.72;;;15.48;99.26
22283;BME280;11310;51.528;21.204;2023-04-15T12:14:56;99248.53;;;15.64;100.00
22283;BME280;11310;51.528;21.204;2023-04-15T12:17:26;99250.94;;;15.89;100.00
22283;BME280;11310;51.528;21.204;2023-04-15T12:19:56;99246.00;;;15.95;99.57
22283;BME280;11310;51.528;21.204;2023-04-15T12:22:26;99245.41;;;15.70;99.09
22283;BME280;11310;51.528;21.204;2023-04-15T12:24:56;99250.34;;;15.41;100.00
22283;BME280;11310;51.528;21.204;2023-04-15T12:27:25;99251.38;;;15.17;100.00
22283;BME280;11310;51.528;21.204;2023-04-15T12:30:03;99248.34;;;14.99;100.00
22283;BME280;11310;51.528;21.204;2023-04-15T12:32:34;99246.50;;;14.89;100.00
22283;BME280;11310;51.528;21.204;2023-04-15T12:35:06;99248.53;;;14.85;100.00
22283;BME280;11310;51.528;21.204;2023-04-15T12:37:35;99250.22;;;14.86;100.00
22283;BME280;11310;51.528;21.204;2023-04-15T12:40:07;99252.38;;;14.81;100.00
22283;BME280;11310;51.528;21.204;2023-04-15T12:42:36;99245.91;;;14.85;100.00
22283;BME280;11310;51.528;21.204;2023-04-15T12:45:06;99253.84;;;14.96;100.00
22283;BME280;11310;51.528;21.204;2023-04-15T12:47:35;99259.50;;;15.03;100.00
22283;BME280;11310;51.528;21.204;2023-04-15T12:50:07;99257.72;;;15.14;100.00
22283;BME280;11310;51.528;21.204;2023-04-15T12:52:36;99269.53;;;15.32;100.00
22283;BME280;11310;51.528;21.204;2023-04-15T12:55:05;99271.25;;;15.44;98.66